Date,TemperatureHighF,TemperatureAvgF,TemperatureLowF,DewpointHighF,DewpointAvgF,DewpointLowF,HumidityHigh,HumidityAvg,HumidityLow,PressureMaxIn,PressureMinIn,WindSpeedMaxMPH,WindSpeedAvgMPH,GustSpeedMaxMPH,PrecipitationSumIn
2013-1-1,20.0,6.5,-13.0,19.0,4.8,-15.0,98,92,87,0.00,40.00,6,4,9,0.00
2013-1-2,28.0,17.3,5.0,27.0,15.0,2.0,99,90,75,0.00,40.00,7,4,21,0.10
2013-1-3,24.0,12.3,1.0,18.0,9.2,-1.0,92,88,74,0.00,40.00,7,4,19,0.00
2013-1-4,34.0,19.9,8.0,18.0,13.6,8.0,96,77,49,0.00,40.00,6,3,9,0.00
2013-1-5,17.0,9.0,2.0,15.0,7.1,1.0,98,92,73,0.00,40.00,7,3,21,0.00
2013-1-6,17.0,11.8,3.0,14.0,9.8,2.0,97,91,80,0.00,40.00,6,3,20,0.00
2013-1-7,38.0,24.9,10.0,25.0,19.5,9.0,96,81,57,0.00,40.00,7,3,23,0.00
2013-1-8,34.0,23.0,6.0,30.0,20.7,6.0,99,91,70,0.00,40.00,7,4,9,0.07
2013-1-9,34.0,26.8,22.0,26.0,21.0,18.0,87,78,61,0.00,40.00,12,5,27,0.00
2013-1-10,42.0,34.7,27.0,35.0,29.3,24.0,99,81,58,0.00,40.00,15,6,27,0.01
2013-1-11,34.0,26.0,12.0,34.0,26.0,11.0,99,99,99,0.00,40.00,7,4,26,0.62
2013-1-12,12.0,4.0,0.0,12.0,1.7,-4.0,99,90,80,0.00,40.00,15,5,28,0.28
2013-1-13,9.0,2.5,-4.0,2.0,-2.3,-7.0,87,80,68,0.00,40.00,7,5,9,0.00
2013-1-14,14.0,5.7,-2.0,7.0,1.4,-5.0,94,82,62,0.00,40.00,6,3,9,0.00
2013-1-15,27.0,13.2,-1.0,25.0,8.7,-2.0,97,83,59,0.00,40.00,6,4,22,0.30
2013-1-16,36.0,13.8,-3.0,36.0,7.0,-14.0,99,75,40,0.00,40.00,7,5,24,0.22
2013-1-17,16.0,7.6,-1.0,9.0,-0.3,-12.0,89,69,58,0.00,40.00,7,3,21,0.47
2013-1-18,30.0,21.9,11.0,25.0,19.3,9.0,96,89,77,0.00,40.00,7,4,21,0.00
2013-1-19,36.0,12.9,-3.0,32.0,9.9,-7.0,98,87,78,0.00,40.00,22,7,39,0.53
2013-1-20,4.0,-2.8,-11.0,-2.0,-8.8,-18.0,83,75,68,0.00,40.00,16,5,27,0.00
2013-1-21,-3.0,-9.8,-14.0,-11.0,-16.4,-20.0,78,72,66,0.00,40.00,7,4,19,0.00
2013-1-22,7.0,-3.7,-17.0,4.0,-9.1,-20.0,85,77,66,0.00,40.00,6,2,9,0.00
2013-1-23,7.0,-2.8,-14.0,4.0,-8.2,-21.0,92,77,64,0.00,40.00,13,4,28,0.00
2013-1-24,12.0,-2.7,-14.0,7.0,-8.8,-21.0,86,74,70,0.00,40.00,14,4,28,0.08
2013-1-25,15.0,3.1,-8.0,11.0,-2.4,-12.0,85,77,72,0.00,40.00,15,4,27,0.00
2013-1-26,17.0,6.6,-8.0,12.0,2.0,-11.0,87,81,72,0.00,40.00,7,4,24,0.00
2013-1-27,32.0,21.1,8.0,29.0,17.4,6.0,97,85,70,0.00,40.00,7,2,9,0.00
2013-1-28,30.0,28.0,25.0,30.0,28.0,25.0,99,99,97,0.00,40.00,6,3,9,5.70
2013-1-29,25.0,21.7,15.0,25.0,21.2,12.0,99,97,88,0.00,40.00,7,5,21,0.14
2013-1-30,15.0,6.5,-5.0,12.0,3.4,-8.0,90,86,83,0.00,40.00,11,5,26,0.04
2013-1-31,-5.0,-9.5,-15.0,-8.0,-14.2,-20.0,88,79,74,0.00,40.00,17,6,27,0.00